createdAt,value
2022-11-08T00:02:23.292Z,90.17
2022-11-08T00:04:50.062Z,90.30
2022-11-08T00:07:35.448Z,90.34
2022-11-08T00:10:20.733Z,90.12
2022-11-08T00:13:05.689Z,90.13
2022-11-08T00:15:38.587Z,89.86
2022-11-08T00:18:07.089Z,89.92
2022-11-08T00:20:34.440Z,90.25
2022-11-08T00:23:01.036Z,90.37
2022-11-08T00:25:27.635Z,90.25
2022-11-08T00:27:54.204Z,90.71
2022-11-08T00:30:20.907Z,90.85
2022-11-08T00:32:47.463Z,90.22
2022-11-08T00:35:14.102Z,90.13
2022-11-08T00:37:40.659Z,90.33
2022-11-08T00:40:07.612Z,90.23
2022-11-08T00:42:34.242Z,90.23
2022-11-08T00:45:00.885Z,90.31
2022-11-08T00:47:27.421Z,90.75
2022-11-08T00:49:53.993Z,90.29
2022-11-08T00:52:20.598Z,90.58
2022-11-08T00:54:47.197Z,90.59
2022-11-08T00:57:13.789Z,90.84
2022-11-08T00:59:40.329Z,91.17
2022-11-08T01:02:06.969Z,90.87
2022-11-08T01:04:33.609Z,90.64
2022-11-08T01:07:00.187Z,91.14
2022-11-08T01:09:26.818Z,91.01
2022-11-08T01:11:53.422Z,90.85
2022-11-08T01:14:19.996Z,90.95
2022-11-08T01:16:46.599Z,90.88
2022-11-08T01:19:13.215Z,91.36
2022-11-08T01:21:39.824Z,91.53
2022-11-08T01:24:07.036Z,91.52
2022-11-08T01:26:33.622Z,91.61
2022-11-08T01:29:00.352Z,92.05
2022-11-08T01:31:32.060Z,91.91
2022-11-08T01:33:59.933Z,91.81
2022-11-08T01:36:27.571Z,92.11
2022-11-08T01:38:54.693Z,92.04
2022-11-08T01:41:22.699Z,92.28
2022-11-08T01:43:50.680Z,92.01
2022-11-08T01:46:20.078Z,91.61
2022-11-08T01:48:54.740Z,91.73
2022-11-08T01:51:26.005Z,91.65
2022-11-08T01:53:52.767Z,92.23
2022-11-08T01:56:21.212Z,92.18
2022-11-08T01:58:53.159Z,92.28
2022-11-08T02:01:19.776Z,92.39
2022-11-08T02:03:47.318Z,92.33
2022-11-08T02:06:14.957Z,92.33
2022-11-08T02:08:43.438Z,92.29
2022-11-08T02:11:14.095Z,93.04
2022-11-08T02:13:41.249Z,92.89
2022-11-08T02:16:13.536Z,92.80
2022-11-08T02:18:42.181Z,92.91
2022-11-08T02:21:27.139Z,92.81
2022-11-08T02:23:55.832Z,92.93
2022-11-08T02:26:33.586Z,93.33
2022-11-08T02:29:33.625Z,93.12
2022-11-08T02:32:01.825Z,93.52
2022-11-08T02:34:34.028Z,93.62
2022-11-08T02:37:02.328Z,93.08
2022-11-08T02:39:30.065Z,93.42
2022-11-08T02:41:56.632Z,93.88
2022-11-08T02:44:23.173Z,94.24
2022-11-08T02:46:50.006Z,93.67
2022-11-08T02:49:16.966Z,93.79
2022-11-08T02:51:43.547Z,93.97
2022-11-08T02:54:10.118Z,94.11
2022-11-08T02:56:36.685Z,93.27
2022-11-08T02:59:03.371Z,93.53
2022-11-08T03:01:30.018Z,93.81
2022-11-08T03:03:56.653Z,94.18
2022-11-08T03:06:23.217Z,93.79
2022-11-08T03:08:49.763Z,94.26
2022-11-08T03:11:16.338Z,93.92
2022-11-08T03:13:42.952Z,94.20
2022-11-08T03:16:09.509Z,94.00
2022-11-08T03:18:36.093Z,93.90
2022-11-08T03:21:02.772Z,94.30
2022-11-08T03:23:29.432Z,94.37
2022-11-08T03:25:56.033Z,94.02
2022-11-08T03:28:23.282Z,94.04
2022-11-08T03:30:52.686Z,94.13
2022-11-08T03:33:20.770Z,94.14
2022-11-08T03:35:51.382Z,94.55
2022-11-08T03:38:18.771Z,94.68
2022-11-08T03:40:46.130Z,95.07
2022-11-08T03:43:12.987Z,95.17
2022-11-08T03:45:39.551Z,94.76
2022-11-08T03:48:06.597Z,94.91
2022-11-08T03:50:33.414Z,94.73
2022-11-08T03:53:00.092Z,94.83
2022-11-08T03:55:28.168Z,95.06
2022-11-08T03:57:55.860Z,95.31
2022-11-08T04:00:25.255Z,95.04
2022-11-08T04:02:52.309Z,95.39
2022-11-08T04:05:19.367Z,94.95
2022-11-08T04:07:46.867Z,95.05
2022-11-08T04:10:13.953Z,95.41
2022-11-08T04:13:00.830Z,95.89
2022-11-08T04:15:29.044Z,95.88
2022-11-08T04:18:14.655Z,96.32
2022-11-08T04:21:01.296Z,96.57
2022-11-08T04:23:29.044Z,96.43
2022-11-08T04:25:57.972Z,96.48
2022-11-08T04:28:26.445Z,95.59
2022-11-08T04:30:57.462Z,96.16
2022-11-08T04:33:24.705Z,95.73
2022-11-08T04:35:51.718Z,95.93
2022-11-08T04:38:18.958Z,96.24
2022-11-08T04:40:45.855Z,96.04
2022-11-08T04:43:13.219Z,95.70
2022-11-08T04:45:41.118Z,95.85
2022-11-08T04:48:08.115Z,95.76
2022-11-08T04:50:34.828Z,95.97
2022-11-08T04:53:01.978Z,95.73
2022-11-08T04:55:28.606Z,95.46
2022-11-08T04:57:58.997Z,95.50
2022-11-08T05:00:26.168Z,95.30
2022-11-08T05:02:52.844Z,96.34
2022-11-08T05:05:19.681Z,96.33
2022-11-08T05:07:46.237Z,96.27
2022-11-08T05:10:12.965Z,95.87
2022-11-08T05:12:39.563Z,95.86
2022-11-08T05:15:06.941Z,95.71
2022-11-08T05:17:33.497Z,95.80
2022-11-08T05:20:29.305Z,95.79
2022-11-08T05:23:19.732Z,96.05
2022-11-08T05:25:46.475Z,96.09
2022-11-08T05:28:13.332Z,96.02
2022-11-08T05:30:39.904Z,95.99
2022-11-08T05:33:06.510Z,95.74
2022-11-08T05:35:34.224Z,95.55
2022-11-08T05:38:00.847Z,94.98
2022-11-08T05:40:33.019Z,95.18
2022-11-08T05:43:00.159Z,94.80
2022-11-08T05:45:26.826Z,94.95
2022-11-08T05:47:53.440Z,95.14
2022-11-08T05:50:20.283Z,95.10
2022-11-08T05:52:46.889Z,94.14
2022-11-08T05:55:13.524Z,93.82
2022-11-08T05:57:43.791Z,95.30
2022-11-08T06:00:11.997Z,94.98
2022-11-08T06:02:39.618Z,95.49
2022-11-08T06:05:07.851Z,95.39
2022-11-08T06:07:35.086Z,95.75
2022-11-08T06:10:01.997Z,96.30
2022-11-08T06:12:29.034Z,95.35
2022-11-08T06:14:55.660Z,95.04
2022-11-08T06:17:26.169Z,95.27
2022-11-08T06:19:55.766Z,93.98
2022-11-08T06:22:22.350Z,93.69
2022-11-08T06:24:48.925Z,92.78
2022-11-08T06:27:15.879Z,92.49
2022-11-08T06:29:42.559Z,92.63
2022-11-08T06:32:10.449Z,91.94
2022-11-08T06:34:37.210Z,92.63
2022-11-08T06:37:05.063Z,92.41
2022-11-08T06:39:31.756Z,92.35
2022-11-08T06:41:58.334Z,91.15
2022-11-08T06:44:24.950Z,90.90
2022-11-08T06:46:51.479Z,89.66
2022-11-08T06:49:18.200Z,89.32
2022-11-08T06:51:44.775Z,88.51
2022-11-08T06:54:16.818Z,88.80
2022-11-08T06:56:45.583Z,88.47
2022-11-08T06:59:12.337Z,88.32
2022-11-08T07:01:42.094Z,88.68
2022-11-08T07:04:11.984Z,89.78
2022-11-08T07:06:38.759Z,89.21
2022-11-08T07:09:05.370Z,88.41
2022-11-08T07:11:31.938Z,87.07
2022-11-08T07:13:58.490Z,87.44
2022-11-08T07:16:25.370Z,88.18
2022-11-08T07:18:52.164Z,87.99
2022-11-08T07:21:18.907Z,88.95
2022-11-08T07:23:45.546Z,88.60
2022-11-08T07:26:13.219Z,88.70
2022-11-08T07:28:40.473Z,88.18
2022-11-08T07:31:08.368Z,88.03
2022-11-08T07:33:35.459Z,86.85
2022-11-08T07:36:02.786Z,86.88
2022-11-08T07:38:29.544Z,86.87
2022-11-08T07:40:58.246Z,85.79
2022-11-08T07:43:26.090Z,86.00
2022-11-08T07:45:57.945Z,85.55
2022-11-08T07:48:25.727Z,85.59
2022-11-08T07:50:52.402Z,85.82
2022-11-08T07:53:19.417Z,85.17
2022-11-08T07:55:48.180Z,84.89
2022-11-08T07:58:15.473Z,84.43
2022-11-08T08:00:43.548Z,83.79
2022-11-08T08:03:13.861Z,83.63
2022-11-08T08:05:45.723Z,83.53
2022-11-08T08:08:13.580Z,82.69
2022-11-08T08:10:41.271Z,82.67
2022-11-08T08:13:08.309Z,82.22
2022-11-08T08:15:35.071Z,82.30
2022-11-08T08:18:07.107Z,82.33
2022-11-08T08:20:34.785Z,81.74
2022-11-08T08:23:01.508Z,81.03
2022-11-08T08:25:31.036Z,81.22
2022-11-08T08:28:00.792Z,80.38
2022-11-08T08:30:29.110Z,81.08
2022-11-08T08:33:27.410Z,79.78
2022-11-08T08:35:54.903Z,80.54
2022-11-08T08:38:23.893Z,81.08
2022-11-08T08:40:51.316Z,80.29
2022-11-08T08:43:18.323Z,81.15
2022-11-08T08:45:45.096Z,79.68
2022-11-08T08:48:11.678Z,79.39
2022-11-08T08:50:38.481Z,78.18
2022-11-08T08:53:06.147Z,78.02
2022-11-08T08:55:36.746Z,78.61
2022-11-08T08:58:03.709Z,78.25
2022-11-08T09:03:17.451Z,75.51
2022-11-08T09:05:46.617Z,77.86
2022-11-08T09:08:14.678Z,76.95
2022-11-08T09:10:41.623Z,75.88
2022-11-08T09:13:08.170Z,75.92
2022-11-08T09:15:34.765Z,77.43
2022-11-08T09:18:01.425Z,78.79
2022-11-08T09:20:28.206Z,78.44
2022-11-08T09:22:54.857Z,77.92
2022-11-08T09:25:21.501Z,78.22
2022-11-08T09:27:48.072Z,78.43
2022-11-08T09:30:14.681Z,78.52
2022-11-08T09:35:27.917Z,79.11
2022-11-08T09:37:55.133Z,77.77
2022-11-08T09:40:38.594Z,77.06
2022-11-08T09:43:17.621Z,77.68
2022-11-08T09:45:46.927Z,77.72
2022-11-08T09:48:27.378Z,78.32
2022-11-08T09:50:55.514Z,78.04
2022-11-08T09:53:35.372Z,78.20
2022-11-08T09:56:11.097Z,78.27
2022-11-08T09:59:02.086Z,76.83
2022-11-08T10:01:36.647Z,76.41
2022-11-08T10:04:14.590Z,77.21
2022-11-08T10:06:46.238Z,76.89
2022-11-08T10:09:27.774Z,75.89
2022-11-08T10:12:12.479Z,75.36
2022-11-08T10:14:53.868Z,75.91
2022-11-08T10:17:31.468Z,75.35
2022-11-08T10:20:19.624Z,75.84
2022-11-08T10:23:21.643Z,76.79
2022-11-08T10:25:54.473Z,76.94
2022-11-08T10:28:26.408Z,76.08
2022-11-08T10:30:55.426Z,74.62
2022-11-08T10:33:50.947Z,74.64
2022-11-08T10:36:41.934Z,74.94
2022-11-08T10:39:11.348Z,75.49
2022-11-08T10:41:56.186Z,76.47
2022-11-08T10:44:24.604Z,77.67
2022-11-08T10:46:57.106Z,75.77
2022-11-08T10:49:27.020Z,74.58
2022-11-08T10:52:16.640Z,77.46
2022-11-08T10:54:51.818Z,75.14
2022-11-08T10:57:31.779Z,75.36
2022-11-08T11:00:15.641Z,76.29
2022-11-08T11:02:43.186Z,75.80
2022-11-08T11:05:31.564Z,75.57
2022-11-08T11:08:02.379Z,76.10
2022-11-08T11:10:30.655Z,75.28
2022-11-08T11:13:23.821Z,75.56
2022-11-08T11:15:53.264Z,76.99
2022-11-08T11:18:33.050Z,75.04
2022-11-08T11:21:37.237Z,75.44
2022-11-08T11:24:20.327Z,75.77
2022-11-08T11:27:07.746Z,75.74
2022-11-08T11:29:35.543Z,74.25
2022-11-08T11:32:23.341Z,74.19
2022-11-08T11:34:56.789Z,72.30
2022-11-08T11:37:42.228Z,72.67
2022-11-08T11:40:24.425Z,71.91
2022-11-08T11:43:25.456Z,71.86
2022-11-08T11:46:08.945Z,71.68
2022-11-08T11:48:47.597Z,72.86
2022-11-08T11:51:14.274Z,72.10
2022-11-08T11:53:47.383Z,71.19
2022-11-08T11:56:27.209Z,68.47
2022-11-08T11:59:24.864Z,66.29
2022-11-08T12:02:15.882Z,68.73
2022-11-08T12:04:45.215Z,70.35
2022-11-08T12:07:20.214Z,71.25
2022-11-08T12:10:01.620Z,71.83
2022-11-08T12:12:49.534Z,72.27
2022-11-08T12:15:24.128Z,73.12
2022-11-08T12:18:43.594Z,71.79
2022-11-08T12:21:36.999Z,72.11
2022-11-08T12:24:39.637Z,72.56
2022-11-08T12:27:44.473Z,71.79
2022-11-08T12:30:20.266Z,71.86
2022-11-08T12:33:37.720Z,72.23
2022-11-08T12:36:16.905Z,72.15
2022-11-08T12:39:23.386Z,70.07
2022-11-08T12:42:06.223Z,68.07
2022-11-08T12:44:54.081Z,68.95
2022-11-08T12:47:46.177Z,70.57
2022-11-08T12:50:20.837Z,67.00
2022-11-08T12:53:07.626Z,66.14
2022-11-08T12:55:41.936Z,68.60
2022-11-08T12:58:37.638Z,68.85
2022-11-08T13:01:12.649Z,69.14
2022-11-08T13:03:42.762Z,68.77
2022-11-08T13:06:47.312Z,69.67
2022-11-08T13:09:38.972Z,70.87
2022-11-08T13:12:44.835Z,72.67
2022-11-08T13:15:18.935Z,73.46
2022-11-08T13:18:07.313Z,73.16
2022-11-08T13:20:46.177Z,73.26
2022-11-08T13:23:28.727Z,73.03
2022-11-08T13:26:12.144Z,73.37
2022-11-08T13:28:38.754Z,73.98
2022-11-08T13:31:17.386Z,74.16
2022-11-08T13:33:56.832Z,74.29
2022-11-08T13:36:49.602Z,75.02
2022-11-08T13:39:26.059Z,74.93
2022-11-08T13:42:29.396Z,73.72
2022-11-08T13:44:55.897Z,73.77
2022-11-08T13:47:34.648Z,72.78
2022-11-08T13:50:29.063Z,72.64
2022-11-08T13:53:27.249Z,72.72
2022-11-08T13:55:58.322Z,73.31
2022-11-08T13:58:37.798Z,73.24
2022-11-08T14:01:22.871Z,72.38
2022-11-08T14:03:54.042Z,72.65
2022-11-08T14:06:55.717Z,70.85
2022-11-08T14:09:43.419Z,71.66
2022-11-08T14:12:34.702Z,72.53
2022-11-08T14:15:15.777Z,72.81
2022-11-08T14:17:51.551Z,73.54
2022-11-08T14:20:23.233Z,73.98
2022-11-08T14:22:50.667Z,74.41
2022-11-08T14:25:35.742Z,74.87
2022-11-08T14:28:03.952Z,75.20
2022-11-08T14:30:32.123Z,76.09
2022-11-08T14:33:20.664Z,76.55
2022-11-08T14:36:01.274Z,77.13
2022-11-08T14:38:30.510Z,77.38
2022-11-08T14:41:00.228Z,78.29
2022-11-08T14:43:27.761Z,78.65
2022-11-08T14:45:58.055Z,79.38
2022-11-08T14:48:28.641Z,79.15
2022-11-08T14:51:00.422Z,79.49
2022-11-08T14:53:44.497Z,79.40
2022-11-08T14:56:16.232Z,79.33
2022-11-08T14:58:43.517Z,79.95
2022-11-08T15:01:12.054Z,79.91
2022-11-08T15:03:44.022Z,80.09
2022-11-08T15:06:14.229Z,80.47
2022-11-08T15:08:51.934Z,81.19
2022-11-08T15:11:31.059Z,81.61
2022-11-08T15:14:07.169Z,81.86
2022-11-08T15:16:45.832Z,81.89
2022-11-08T15:19:44.439Z,82.40
2022-11-08T15:22:31.998Z,82.54
2022-11-08T15:25:03.220Z,82.92
2022-11-08T15:27:29.936Z,83.53
2022-11-08T15:30:08.554Z,84.12
2022-11-08T15:32:39.925Z,84.20
2022-11-08T15:35:19.361Z,84.34
2022-11-08T15:37:48.529Z,84.91
2022-11-08T15:40:23.861Z,85.17
2022-11-08T15:42:52.200Z,85.39
2022-11-08T15:45:20.539Z,85.36
2022-11-08T15:47:48.280Z,85.71
2022-11-08T15:50:20.058Z,86.23
2022-11-08T15:52:49.721Z,86.58
2022-11-08T15:55:19.314Z,87.06
2022-11-08T15:57:47.659Z,86.82
2022-11-08T16:00:17.990Z,87.07
2022-11-08T16:02:45.264Z,87.03
2022-11-08T16:05:26.741Z,87.54
2022-11-08T16:07:54.225Z,87.46
2022-11-08T16:10:32.140Z,87.78
2022-11-08T16:13:01.051Z,87.90
2022-11-08T16:15:32.216Z,88.14
2022-11-08T16:17:59.868Z,88.40
2022-11-08T16:20:30.488Z,88.70
2022-11-08T16:22:59.106Z,88.63
2022-11-08T16:25:28.086Z,88.83
2022-11-08T16:28:02.668Z,89.26
2022-11-08T16:30:31.527Z,88.84
2022-11-08T16:32:58.462Z,88.73
2022-11-08T16:35:25.945Z,88.84
2022-11-08T16:37:53.624Z,89.00
2022-11-08T16:40:22.667Z,89.43
2022-11-08T16:42:51.724Z,89.72
2022-11-08T16:45:37.270Z,89.80
2022-11-08T16:48:08.031Z,89.74
2022-11-08T16:50:34.767Z,89.94
2022-11-08T16:53:04.106Z,90.12
2022-11-08T16:55:30.774Z,89.89
2022-11-08T16:57:57.772Z,89.82
2022-11-08T17:00:24.318Z,89.95
2022-11-08T17:02:52.708Z,89.82
2022-11-08T17:05:22.372Z,89.87
2022-11-08T17:07:53.324Z,89.73
2022-11-08T17:10:25.740Z,89.23
2022-11-08T17:12:53.086Z,88.94
2022-11-08T17:15:23.058Z,88.76
2022-11-08T17:17:51.885Z,88.62
2022-11-08T17:20:22.592Z,89.10
2022-11-08T17:22:49.967Z,89.26
2022-11-08T17:25:21.838Z,89.60
2022-11-08T17:27:50.216Z,89.43
2022-11-08T17:30:20.180Z,89.63
2022-11-08T17:32:49.476Z,89.91
2022-11-08T17:35:16.121Z,89.81
2022-11-08T17:37:42.856Z,89.93
2022-11-08T17:40:09.794Z,89.79
2022-11-08T17:42:38.331Z,90.36
2022-11-08T17:45:10.263Z,90.47
2022-11-08T17:47:37.672Z,90.29
2022-11-08T17:50:06.141Z,90.08
2022-11-08T17:52:33.011Z,89.91
2022-11-08T17:54:59.595Z,90.09
2022-11-08T17:57:26.269Z,90.38
2022-11-08T17:59:53.116Z,90.59
2022-11-08T18:02:19.918Z,90.77
2022-11-08T18:04:46.612Z,90.63
2022-11-08T18:07:13.259Z,90.93
2022-11-08T18:09:40.004Z,90.94
2022-11-08T18:12:06.700Z,91.15
2022-11-08T18:14:33.368Z,91.44
2022-11-08T18:17:00.074Z,91.30
2022-11-08T18:19:26.685Z,91.44
2022-11-08T18:21:53.314Z,91.67
2022-11-08T18:24:20.274Z,91.23
2022-11-08T18:26:46.881Z,91.04
2022-11-08T18:29:13.635Z,90.89
2022-11-08T18:31:40.491Z,90.69
2022-11-08T18:34:07.125Z,90.46
2022-11-08T18:36:33.803Z,90.59
2022-11-08T18:39:01.214Z,90.52
2022-11-08T18:41:31.009Z,90.52
2022-11-08T18:43:59.337Z,90.61
2022-11-08T18:46:28.839Z,90.30
2022-11-08T18:48:55.475Z,89.74
2022-11-08T18:51:22.888Z,89.96
2022-11-08T18:53:52.393Z,89.51
2022-11-08T18:56:19.906Z,89.63
2022-11-08T18:58:47.130Z,89.81
2022-11-08T19:01:15.055Z,89.82
2022-11-08T19:03:42.251Z,90.01
2022-11-08T19:06:09.158Z,90.29
2022-11-08T19:08:36.990Z,90.72
2022-11-08T19:11:09.444Z,90.76
2022-11-08T19:13:38.888Z,90.10
2022-11-08T19:16:10.206Z,90.36
2022-11-08T19:18:37.731Z,90.49
2022-11-08T19:21:07.889Z,90.74
2022-11-08T19:23:35.179Z,91.28
2022-11-08T19:26:04.690Z,91.22
2022-11-08T19:28:36.904Z,91.34
2022-11-08T19:31:04.142Z,91.10
2022-11-08T19:33:32.288Z,90.93
2022-11-08T19:36:12.652Z,90.90
2022-11-08T19:38:40.444Z,91.33
2022-11-08T19:41:12.505Z,91.82
2022-11-08T19:43:41.094Z,92.55
2022-11-08T19:46:11.993Z,93.06
2022-11-08T19:48:41.216Z,93.40
2022-11-08T19:51:13.564Z,92.95
2022-11-08T19:53:41.192Z,92.68
2022-11-08T19:56:09.985Z,92.45
2022-11-08T19:58:38.167Z,92.42
2022-11-08T20:01:13.793Z,92.14
2022-11-08T20:03:40.583Z,92.29
2022-11-08T20:06:08.507Z,92.13
2022-11-08T20:08:35.532Z,92.68
2022-11-08T20:11:14.310Z,92.59
2022-11-08T20:13:41.020Z,93.01
2022-11-08T20:16:16.402Z,93.11
2022-11-08T20:18:43.597Z,93.37
2022-11-08T20:21:11.633Z,93.18
2022-11-08T20:23:38.885Z,93.78
2022-11-08T20:26:07.737Z,93.99
2022-11-08T20:28:36.349Z,94.04
2022-11-08T20:31:10.817Z,93.87
2022-11-08T20:33:39.549Z,93.96
2022-11-08T20:36:08.397Z,93.76
2022-11-08T20:38:36.902Z,93.85
2022-11-08T20:41:05.371Z,94.26
2022-11-08T20:43:33.026Z,94.64
2022-11-08T20:46:08.215Z,94.57
2022-11-08T20:48:34.928Z,94.00
2022-11-08T20:51:04.136Z,94.30
2022-11-08T20:53:32.570Z,94.37
2022-11-08T20:56:00.982Z,94.47
2022-11-08T20:58:29.324Z,94.27
2022-11-08T21:00:58.735Z,94.25
2022-11-08T21:03:26.543Z,94.53
2022-11-08T21:05:55.270Z,94.83
2022-11-08T21:11:11.499Z,94.67
2022-11-08T21:13:40.101Z,94.78
2022-11-08T21:16:28.228Z,94.77
2022-11-08T21:18:54.236Z,95.01
2022-11-08T21:21:22.424Z,95.34
2022-11-08T21:23:49.303Z,95.20
2022-11-08T21:26:18.313Z,95.37
2022-11-08T21:28:45.146Z,95.61
2022-11-08T21:31:12.403Z,95.77
2022-11-08T21:33:39.076Z,96.05
2022-11-08T21:36:06.449Z,96.24
2022-11-08T21:38:36.003Z,96.41
2022-11-08T21:41:05.543Z,96.40
2022-11-08T21:43:42.958Z,95.55
2022-11-08T21:46:24.530Z,94.86
2022-11-08T21:48:59.094Z,95.35
2022-11-08T21:51:26.852Z,95.70
2022-11-08T21:53:55.966Z,96.11
2022-11-08T21:56:25.129Z,95.99
2022-11-08T21:58:52.241Z,96.59
2022-11-08T22:01:18.946Z,96.47
2022-11-08T22:03:46.703Z,96.57
2022-11-08T22:06:13.690Z,96.68
2022-11-08T22:08:40.284Z,96.49
2022-11-08T22:11:06.913Z,96.48
2022-11-08T22:13:33.827Z,96.66
2022-11-08T22:16:00.439Z,96.60
2022-11-08T22:18:43.559Z,97.09
2022-11-08T22:21:32.129Z,96.68
2022-11-08T22:23:58.682Z,96.76
2022-11-08T22:26:25.231Z,96.97
2022-11-08T22:28:51.812Z,97.16
2022-11-08T22:31:18.345Z,97.38
2022-11-08T22:33:44.857Z,97.07
2022-11-08T22:36:12.021Z,97.02
2022-11-08T22:38:38.942Z,97.41
2022-11-08T22:41:05.919Z,97.77
2022-11-08T22:43:34.397Z,97.88
2022-11-08T22:46:00.992Z,98.55
2022-11-08T22:48:27.596Z,98.74
2022-11-08T22:50:54.212Z,98.86
2022-11-08T22:53:21.087Z,98.39
2022-11-08T22:55:47.844Z,98.66
2022-11-08T22:58:14.661Z,98.68
2022-11-08T23:03:28.382Z,99.25
2022-11-08T23:05:57.095Z,99.14
2022-11-08T23:08:25.778Z,99.13
2022-11-08T23:11:11.192Z,99.12
2022-11-08T23:13:56.532Z,99.03
2022-11-08T23:16:35.290Z,99.27
2022-11-08T23:19:47.780Z,99.53
2022-11-08T23:22:35.690Z,99.64
2022-11-08T23:25:02.338Z,99.60
2022-11-08T23:27:47.568Z,99.24
2022-11-08T23:30:35.328Z,99.17
2022-11-08T23:33:04.171Z,99.66
2022-11-08T23:35:30.709Z,99.75
2022-11-08T23:37:57.314Z,99.78
2022-11-08T23:40:42.569Z,99.26
2022-11-08T23:43:36.282Z,99.23
2022-11-08T23:46:11.322Z,99.11
2022-11-08T23:48:39.654Z,99.61
2022-11-08T23:51:07.348Z,99.87
2022-11-08T23:53:36.870Z,100.00
2022-11-08T23:56:04.304Z,100.00
2022-11-08T23:58:31.944Z,99.83
